Latest Weather Observations for Clermont Airport

IDQ60801

Issued at 7:36 pm EST Thursday 2 April 2015 (issued every 30 minutes, with the page automatically refreshed every 10 minutes)

About weather observations | Map of weather stations | Latest weather observations for QLD | Other Formats
Station Details ID: 035124 Name: CLERMONT AIRPORT Lat: -22.78 Lon: 147.62 Height: 270.27 m
Data from the previous 72 hours. | See also: Recent months at Clermont Airport
Date/Time
EST
Temp
°C
App
Temp
°C
Dew
Point
Rel
Hum
%
Delta-T
°C
Wind Press
QNH
hPa
Press
MSL
hPa
Rain
since 9 am
mm
Dir
 
Spd
km/h
Gust
km/h
Spd
kts
Gust
kts
02/07:30pm 26.7 26.8 13.8 45 7.7 SSE 6 7 3 4 1013.6 1012.4 0.0
02/07:00pm 27.4 27.8 13.7 43 8.2 SSE 4 6 2 3 1013.3 1012.1 0.0
02/06:30pm 27.8 27.7 13.3 40 8.7 ESE 6 7 3 4 1013.0 1011.8 0.0
02/06:00pm 28.8 28.2 13.5 39 9.2 SE 9 17 5 9 1012.7 1011.5 0.0
02/05:30pm 29.6 28.8 12.9 35 10.0 SE 9 15 5 8 1012.3 1011.0 0.0
02/05:00pm 30.2 29.4 13.0 34 10.3 E 9 17 5 9 1012.2 1010.9 0.0
02/04:30pm 31.0 30.3 13.3 34 10.7 SSE 9 15 5 8 1012.0 1010.7 0.0
02/04:00pm 30.6 29.6 13.4 35 10.4 S 11 19 6 10 1011.8 1010.5 0.0
02/03:30pm 30.4 30.1 13.2 35 10.4 SSE 7 15 4 8 1012.0 1010.7 0.0
02/03:00pm 30.9 30.0 13.7 35 10.5 S 11 22 6 12 1012.1 1010.8 0.0
02/02:30pm 30.1 28.8 13.8 37 9.9 S 13 24 7 13 1012.5 1011.3 0.0
02/02:00pm 29.7 29.0 14.3 39 9.4 SSE 11 20 6 11 1012.9 1011.7 0.0
02/01:30pm 29.7 29.5 14.7 40 9.2 SE 9 19 5 10 1013.3 1012.1 0.0
02/01:00pm 28.8 27.7 15.3 43 8.3 SSE 15 28 8 15 1013.8 1012.6 0.0
02/12:30pm 28.0 27.4 15.6 46 7.7 SSE 13 20 7 11 1014.6 1013.3 0.0
02/12:00pm 27.8 28.1 16.1 49 7.3 S 9 20 5 11 1015.1 1013.8 0.0
02/11:30am 26.5 26.3 15.8 51 6.6 E 11 17 6 9 1015.6 1014.3 0.0
02/11:00am 26.1 26.2 16.4 55 6.0 ESE 11 20 6 11 1016.1 1014.9 0.0
02/10:30am 25.1 24.4 16.3 58 5.4 ESE 15 22 8 12 1016.7 1015.5 0.0
02/10:00am 23.7 23.3 16.2 63 4.6 SSE 13 22 7 12 1016.8 1015.6 0.0
02/09:30am 22.9 22.8 16.9 69 3.7 SE 13 19 7 10 1017.3 1016.1 0.0
02/09:00am 21.7 22.3 16.9 74 3.0 SE 9 15 5 8 1017.5 1016.3 0.0
02/08:30am 21.4 22.6 17.4 78 2.5 ESE 7 11 4 6 1017.4 1016.2 0.0
02/08:00am 20.6 22.0 17.4 82 2.0 ESE 6 15 3 8 1017.2 1016.0 0.0
02/07:30am 20.2 21.9 17.2 83 1.8 ESE 4 9 2 5 1016.9 1015.7 0.0
02/07:00am 19.3 20.6 17.1 87 1.3 ESE 6 11 3 6 1016.6 1015.4 0.0
02/06:30am 19.1 19.9 17.2 89 1.2 SE 9 19 5 10 1016.2 1015.0 0.0
02/05:30am 18.8 19.8 16.8 88 1.2 SSE 7 9 4 5 1015.9 1014.7 0.0
02/05:00am 18.9 19.8 16.7 87 1.3 SSE 7 11 4 6 1015.6 1014.3 0.0
02/04:30am 19.1 20.0 16.7 86 1.5 SSE 7 11 4 6 1015.5 1014.2 0.0
02/04:00am 19.4 20.3 16.6 84 1.7 SE 7 11 4 6 1015.5 1014.2 0.0
02/03:30am 19.3 20.1 16.3 83 1.8 SSE 7 11 4 6 1015.3 1014.0 0.0
02/03:00am 19.2 20.6 16.4 84 1.7 S 4 6 2 3 1015.4 1014.1 0.0
02/02:30am 19.6 21.3 16.3 81 2.0 S 2 6 1 3 1015.6 1014.3 0.0
02/02:00am 20.3 21.8 16.7 80 2.2 SSE 4 6 2 3 1015.7 1014.4 0.0
02/01:30am 20.2 21.8 16.8 81 2.1 SSE 4 9 2 5 1015.9 1014.7 0.0
02/01:00am 20.4 22.0 16.8 80 2.2 ESE 4 7 2 4 1016.1 1014.9 0.0
02/12:30am 20.6 22.9 16.8 79 2.3 CALM 0 4 0 2 1016.3 1015.1 0.0
02/12:00am 21.1 22.8 17.1 78 2.5 ESE 4 7 2 4 1016.8 1015.6 0.0
 
Date/Time
EST
Temp
°C
App
Temp
°C
Dew
Point
Rel
Hum
%
Delta-T
°C
Wind Press
QNH
hPa
Press
MSL
hPa
Rain
since 9 am
mm
Dir
 
Spd
km/h
Gust
km/h
Spd
kts
Gust
kts
01/11:30pm 21.4 23.8 17.0 76 2.7 CALM 0 0 0 0 1016.9 1015.7 0.0
01/11:00pm 21.8 24.2 17.0 74 3.0 CALM 0 2 0 1 1016.9 1015.7 0.0
01/10:30pm 22.4 24.2 17.3 73 3.2 NE 4 7 2 4 1016.7 1015.5 0.0
01/10:00pm 23.1 24.3 17.3 70 3.6 NE 7 13 4 7 1016.5 1015.3 0.0
01/09:30pm 23.9 24.7 17.2 66 4.2 ENE 9 17 5 9 1016.5 1015.3 0.0
01/09:00pm 24.4 23.5 13.6 51 6.4 E 11 20 6 11 1016.0 1014.8 0.0
01/08:30pm 24.7 25.4 13.3 49 6.7 ESE 2 4 1 2 1015.3 1014.0 0.0
01/08:00pm 25.3 25.5 12.9 46 7.3 ESE 4 7 2 4 1015.1 1013.8 0.0
01/07:30pm 26.2 26.4 13.0 44 7.8 SE 4 6 2 3 1014.9 1013.6 0.0
01/07:00pm 27.1 27.3 13.1 42 8.3 ESE 4 7 2 4 1014.6 1013.3 0.0
01/06:30pm 27.9 27.4 12.7 39 9.0 ESE 7 13 4 7 1014.3 1013.0 0.0
01/06:00pm 28.8 27.4 12.2 35 9.8 SE 11 20 6 11 1013.9 1012.7 0.0
01/05:30pm 29.9 28.2 12.3 33 10.4 SSE 13 19 7 10 1013.7 1012.5 0.0
01/05:00pm 30.0 28.5 12.0 33 10.6 SSE 11 19 6 10 1013.4 1012.2 0.0
01/04:30pm 31.0 28.9 12.4 32 11.1 SSE 15 24 8 13 1013.3 1012.1 0.0
01/04:00pm 30.6 29.1 13.0 34 10.6 SSE 13 19 7 10 1013.4 1012.2 0.0
01/03:30pm 29.9 29.1 12.8 35 10.2 SE 9 24 5 13 1013.4 1012.2 0.0
01/03:00pm 29.4 28.9 12.8 36 9.9 ESE 7 15 4 8 1013.8 1012.6 0.0
01/02:30pm 29.9 28.3 12.8 35 10.2 SE 13 22 7 12 1014.3 1013.0 0.0
01/02:00pm 30.3 29.9 13.1 34 10.3 SE 7 15 4 8 1014.6 1013.3 0.0
01/01:30pm 29.0 28.1 13.6 38 9.3 SE 11 19 6 10 1015.1 1013.8 0.0
01/01:00pm 29.5 29.4 14.9 41 9.0 ESE 9 22 5 12 1015.5 1014.2 0.0
01/12:30pm 28.6 27.5 15.2 44 8.3 SSE 15 22 8 12 1016.1 1014.9 0.0
01/12:00pm 29.2 29.1 15.0 42 8.7 ESE 9 20 5 11 1016.6 1015.4 0.0
01/11:30am 28.4 27.8 14.6 43 8.4 ESE 11 22 6 12 1017.3 1016.1 0.0
01/11:00am 27.8 27.4 15.1 46 7.8 ENE 11 20 6 11 1017.9 1016.7 0.0
01/10:30am 26.8 26.9 15.5 50 7.0 ESE 9 19 5 10 1018.5 1017.2 0.0
01/10:00am 25.7 25.2 16.0 55 6.0 ESE 13 20 7 11 1018.6 1017.3 0.0
01/09:30am 24.9 24.8 16.1 58 5.4 ESE 11 20 6 11 1018.9 1017.3 0.0
01/09:00am 23.6 23.7 16.6 65 4.3 E 11 20 6 11 1019.0 1017.4 0.2
01/08:30am 22.3 22.1 16.8 71 3.4 SE 13 20 7 11 1019.2 1017.6 0.2
01/08:00am 21.7 22.4 17.1 75 2.8 SE 9 17 5 9 1018.8 1017.2 0.2
01/07:30am 20.5 21.1 16.9 80 2.2 SE 9 15 5 8 1018.7 1017.1 0.2
01/07:00am 19.6 20.7 17.0 85 1.6 SE 7 11 4 6 1018.6 1017.0 0.2
01/06:30am 18.9 19.9 16.9 88 1.2 SSE 7 11 4 6 1018.5 1016.9 0.2
01/06:00am 19.0 20.1 17.0 88 1.2 SSE 7 11 4 6 1018.1 1016.5 0.2
01/05:30am 19.0 20.1 17.0 88 1.2 S 7 9 4 5 1017.8 1016.3 0.2
01/05:00am 19.2 20.5 17.0 87 1.3 SSE 6 7 3 4 1017.2 1015.6 0.2
01/04:30am 19.4 20.7 17.0 86 1.5 SSE 6 7 3 4 1017.2 1015.6 0.2
01/04:00am 19.7 20.9 16.9 84 1.7 SSE 6 6 3 3 1017.1 1015.5 0.2
01/03:30am 20.0 21.6 16.8 82 2.0 SE 4 6 2 3 1017.1 1015.5 0.2
01/03:00am 20.3 21.5 16.9 81 2.1 SSE 6 7 3 4 1017.4 1015.8 0.2
01/02:30am 20.4 21.7 17.0 81 2.1 SE 6 9 3 5 1017.5 1015.9 0.2
01/02:00am 20.6 21.2 16.8 79 2.3 SE 9 13 5 7 1017.8 1016.3 0.2
01/01:30am 20.8 21.8 16.8 78 2.5 SSE 7 11 4 6 1018.2 1016.6 0.2
01/01:00am 21.3 22.3 16.9 76 2.7 SSE 7 11 4 6 1018.6 1017.0 0.2
01/12:30am 21.8 22.5 17.0 74 3.0 SE 9 15 5 8 1019.0 1017.4 0.2
01/12:00am 21.9 23.0 17.1 74 3.0 SE 7 13 4 7 1019.2 1017.6 0.2
 
Date/Time
EST
Temp
°C
App
Temp
°C
Dew
Point
Rel
Hum
%
Delta-T
°C
Wind Press
QNH
hPa
Press
MSL
hPa
Rain
since 9 am
mm
Dir
 
Spd
km/h
Gust
km/h
Spd
kts
Gust
kts
31/11:30pm 21.7 22.3 16.9 74 3.0 SSE 9 15 5 8 1019.2 1017.6 0.2
31/11:00pm 21.5 22.1 16.7 74 2.9 SSE 9 19 5 10 1019.3 1017.7 0.2
31/10:30pm 21.4 22.3 16.6 74 2.9 SSE 7 15 4 8 1019.5 1017.9 0.2
31/10:00pm 21.6 22.1 16.6 73 3.1 SSE 9 15 5 8 1019.5 1017.9 0.2
31/09:30pm 21.9 21.8 16.0 69 3.6 SE 11 19 6 10 1019.5 1017.9 0.2
31/09:00pm 22.3 22.9 15.9 67 3.9 SSE 7 15 4 8 1019.1 1017.5 0.2
31/08:30pm 21.6 21.7 16.6 73 3.1 S 11 19 6 10 1018.5 1016.9 0.2
31/08:00pm 21.9 23.5 16.8 73 3.1 ESE 4 6 2 3 1017.4 1015.8 0.2
31/07:30pm 22.2 23.7 16.7 71 3.4 E 4 6 2 3 1017.5 1015.9 0.2
31/07:00pm 23.1 24.1 16.4 66 4.1 ENE 6 9 3 5 1017.6 1016.0 0.0
31/06:30pm 24.3 24.6 15.0 56 5.6 E 7 9 4 5 1017.3 1015.7 0.0
31/06:00pm 24.8 25.3 14.9 54 6.0 ESE 6 11 3 6 1017.4 1015.8 0.0
31/05:30pm 25.2 25.1 14.9 52 6.2 SSE 9 13 5 7 1017.7 1016.1 0.0
31/05:00pm 25.6 24.0 15.0 52 6.4 S 17 26 9 14 1017.6 1016.0 0.0
31/04:30pm 26.1 23.8 14.6 49 7.0 S 20 28 11 15 1017.3 1015.7 0.0
31/04:00pm 26.8 24.6 14.5 46 7.4 S 19 30 10 16 1017.1 1015.5 0.0
31/03:30pm 26.9 24.2 14.6 46 7.5 S 22 30 12 16 1017.2 1015.6 0.0
31/03:00pm 28.1 24.7 14.7 44 8.2 S 26 41 14 22 1017.3 1015.7 0.0
31/02:30pm 28.6 26.2 14.4 41 8.7 SSE 20 32 11 17 1017.4 1015.8 0.0
31/02:00pm 28.6 25.8 14.4 41 8.6 S 22 33 12 18 1017.6 1016.0 0.0
31/01:30pm 29.2 27.2 13.8 39 9.3 SE 17 28 9 15 1017.9 1016.4 0.0
31/01:00pm 30.1 28.7 14.6 39 9.5 SE 15 28 8 15 1018.4 1016.8 0.0
31/12:30pm 30.4 29.2 14.1 37 10.0 SE 13 24 7 13 1018.9 1017.3 0.0
31/12:00pm 29.5 29.6 15.6 43 8.6 SE 9 19 5 10 1019.6 1018.0 0.0
31/11:30am 28.4 29.0 16.7 49 7.4 SE 9 17 5 9 1020.3 1018.7 0.0
31/11:00am 27.6 28.7 17.2 53 6.6 SSE 7 19 4 10 1020.8 1019.2 0.0
31/10:30am 26.3 27.7 17.4 58 5.6 SSE 6 15 3 8 1021.2 1019.7 0.0
31/10:00am 25.1 26.5 17.3 62 4.9 SE 6 11 3 6 1021.3 1019.8 0.0
31/09:30am 24.2 25.5 17.0 64 4.5 ESE 6 11 3 6 1021.2 1019.7 0.0
31/09:00am 24.1 25.0 17.6 67 4.1 ESE 9 13 5 7 1021.3 1019.8 0.0
31/08:30am 23.7 24.8 17.0 66 4.2 ESE 7 15 4 8 1021.1 1019.6 0.0
31/08:00am 22.1 22.2 16.6 71 3.4 ESE 11 17 6 9 1020.6 1019.0 0.0
31/07:30am 21.5 22.4 16.5 73 3.1 SE 7 9 4 5 1020.3 1018.7 0.0
31/07:00am 20.3 21.4 16.5 79 2.3 SE 6 9 3 5 1019.8 1018.2 0.0
31/06:30am 20.0 21.1 16.6 81 2.1 SE 6 9 3 5 1019.3 1017.7 0.0
31/06:00am 20.1 21.1 16.9 82 2.0 SSE 7 11 4 6 1019.1 1017.5 0.0
31/05:30am 20.3 21.7 17.3 83 1.9 SSE 6 7 3 4 1018.7 1017.1 0.0
31/05:00am 20.5 22.0 17.5 83 1.9 SE 6 9 3 5 1018.5 1016.9 0.0
31/04:30am 20.7 22.6 17.7 83 1.9 SE 4 7 2 4 1018.4 1016.8 0.0
31/04:00am 20.7 23.0 17.7 83 1.9 SE 2 4 1 2 1018.2 1016.6 0.0
31/03:30am 21.1 23.5 17.9 82 2.0 ESE 2 4 1 2 1018.2 1016.6 0.0
31/03:00am 21.7 24.3 18.3 81 2.1 SE 2 6 1 3 1018.4 1016.8 0.0
31/02:30am 21.9 24.1 18.3 80 2.3 ESE 4 6 2 3 1018.7 1017.1 0.0
31/02:00am 22.7 24.7 18.7 78 2.5 ENE 6 9 3 5 1019.0 1017.4 0.0
31/01:30am 23.1 25.1 18.8 77 2.7 ENE 6 11 3 6 1019.3 1017.7 0.0
31/01:00am 23.5 25.4 19.0 76 2.9 NE 7 15 4 8 1019.6 1018.0 0.0
31/12:30am 23.7 25.9 19.2 76 2.9 NE 6 9 3 5 1019.7 1018.1 0.0
31/12:00am 24.3 26.0 19.4 74 3.2 NE 9 15 5 8 1019.9 1018.3 0.0
 
Date/Time
EST
Temp
°C
App
Temp
°C
Dew
Point
Rel
Hum
%
Delta-T
°C
Wind Press
QNH
hPa
Press
MSL
hPa
Rain
since 9 am
mm
Dir
 
Spd
km/h
Gust
km/h
Spd
kts
Gust
kts
30/11:30pm 24.5 26.5 19.1 72 3.5 ENE 7 15 4 8 1020.0 1018.4 0.0
30/11:00pm 24.2 26.4 18.4 70 3.7 ENE 4 6 2 3 1020.1 1018.5 0.0
30/10:30pm 24.9 26.7 18.8 69 3.9 NE 7 11 4 6 1020.3 1018.7 0.0
30/10:00pm 24.9 27.1 18.4 67 4.1 NE 4 6 2 3 1020.2 1018.6 0.0
30/09:30pm 25.3 27.4 18.0 64 4.6 NE 4 6 2 3 1020.2 1018.6 0.0
30/09:00pm 25.9 28.0 18.1 62 5.0 NNE 4 6 2 3 1019.9 1018.3 0.0
30/08:30pm 26.7 28.2 18.0 59 5.6 NNE 7 11 4 6 1019.5 1017.9 0.0
30/08:00pm 27.4 28.5 18.1 57 6.0 NNE 9 17 5 9 1019.1 1017.5 0.0

Other Formats:

Comma delimited format used in spreadsheet applications
http://www.bom.gov.au/fwo/IDQ60801/IDQ60801.94395.axf

JavaScript Object Notation format (JSON) in row-major order
http://www.bom.gov.au/fwo/IDQ60801/IDQ60801.94395.json